sensor_id;sensor_type;location;lat;lon;timestamp;temperature;humidity
7784;DHT22;19359;51.402;6.778;2023-01-28T00:00:06;3.10;35.70
7784;DHT22;19359;51.402;6.778;2023-01-28T00:02:34;3.10;36.30
7784;DHT22;19359;51.402;6.778;2023-01-28T00:05:01;3.10;35.10
7784;DHT22;19359;51.402;6.778;2023-01-28T00:07:29;3.10;31.00
7784;DHT22;19359;51.402;6.778;2023-01-28T00:09:55;2.80;41.90
7784;DHT22;19359;51.402;6.778;2023-01-28T00:12:23;3.00;31.90
7784;DHT22;19359;51.402;6.778;2023-01-28T00:14:51;3.00;32.60
7784;DHT22;19359;51.402;6.778;2023-01-28T00:17:18;2.80;41.60
7784;DHT22;19359;51.402;6.778;2023-01-28T00:19:44;3.00;32.20
7784;DHT22;19359;51.402;6.778;2023-01-28T00:22:11;3.00;31.60
7784;DHT22;19359;51.402;6.778;2023-01-28T00:24:38;2.90;33.10
7784;DHT22;19359;51.402;6.778;2023-01-28T00:27:05;2.90;32.70
7784;DHT22;19359;51.402;6.778;2023-01-28T00:29:33;2.90;32.40
7784;DHT22;19359;51.402;6.778;2023-01-28T00:31:59;3.00;40.90
7784;DHT22;19359;51.402;6.778;2023-01-28T00:34:26;2.90;31.00
7784;DHT22;19359;51.402;6.778;2023-01-28T00:36:53;2.80;40.00
7784;DHT22;19359;51.402;6.778;2023-01-28T00:39:23;2.90;30.20
7784;DHT22;19359;51.402;6.778;2023-01-28T00:41:50;2.90;41.70
7784;DHT22;19359;51.402;6.778;2023-01-28T00:44:17;2.80;43.30
7784;DHT22;19359;51.402;6.778;2023-01-28T00:46:45;2.80;45.40
7784;DHT22;19359;51.402;6.778;2023-01-28T00:49:12;2.80;32.70
7784;DHT22;19359;51.402;6.778;2023-01-28T00:51:38;2.90;44.60
7784;DHT22;19359;51.402;6.778;2023-01-28T00:54:05;2.80;34.90
7784;DHT22;19359;51.402;6.778;2023-01-28T00:56:32;2.70;44.90
7784;DHT22;19359;51.402;6.778;2023-01-28T00:59:01;2.70;46.30
7784;DHT22;19359;51.402;6.778;2023-01-28T01:01:28;2.80;37.50
7784;DHT22;19359;51.402;6.778;2023-01-28T01:03:56;2.70;42.20
7784;DHT22;19359;51.402;6.778;2023-01-28T01:06:27;2.80;41.70
7784;DHT22;19359;51.402;6.778;2023-01-28T01:08:54;2.70;32.00
7784;DHT22;19359;51.402;6.778;2023-01-28T01:11:21;2.70;30.00
7784;DHT22;19359;51.402;6.778;2023-01-28T01:13:52;2.70;30.30
7784;DHT22;19359;51.402;6.778;2023-01-28T01:16:22;2.70;30.00
7784;DHT22;19359;51.402;6.778;2023-01-28T01:18:50;2.70;30.30
7784;DHT22;19359;51.402;6.778;2023-01-28T01:21:20;2.70;30.30
7784;DHT22;19359;51.402;6.778;2023-01-28T01:23:47;3.30;39.40
7784;DHT22;19359;51.402;6.778;2023-01-28T01:26:14;2.70;29.60
7784;DHT22;19359;51.402;6.778;2023-01-28T01:28:41;2.70;28.70
7784;DHT22;19359;51.402;6.778;2023-01-28T01:31:11;2.70;29.70
7784;DHT22;19359;51.402;6.778;2023-01-28T01:33:39;2.70;28.30
7784;DHT22;19359;51.402;6.778;2023-01-28T01:36:07;2.70;27.50
7784;DHT22;19359;51.402;6.778;2023-01-28T01:38:35;2.70;28.00
7784;DHT22;19359;51.402;6.778;2023-01-28T01:41:03;2.60;27.10
7784;DHT22;19359;51.402;6.778;2023-01-28T01:43:47;2.60;28.10
7784;DHT22;19359;51.402;6.778;2023-01-28T01:46:17;2.60;38.80
7784;DHT22;19359;51.402;6.778;2023-01-28T01:48:45;2.60;29.10
7784;DHT22;19359;51.402;6.778;2023-01-28T01:51:14;2.60;29.70
7784;DHT22;19359;51.402;6.778;2023-01-28T01:53:47;2.60;30.00
7784;DHT22;19359;51.402;6.778;2023-01-28T01:56:16;2.50;39.80
7784;DHT22;19359;51.402;6.778;2023-01-28T01:58:47;2.60;37.00
7784;DHT22;19359;51.402;6.778;2023-01-28T02:01:15;2.60;31.30
7784;DHT22;19359;51.402;6.778;2023-01-28T02:03:52;2.60;29.80
7784;DHT22;19359;51.402;6.778;2023-01-28T02:06:21;2.90;39.00
7784;DHT22;19359;51.402;6.778;2023-01-28T02:08:52;2.60;39.00
7784;DHT22;19359;51.402;6.778;2023-01-28T02:11:20;2.40;28.40
7784;DHT22;19359;51.402;6.778;2023-01-28T02:13:49;2.40;27.20
7784;DHT22;19359;51.402;6.778;2023-01-28T02:16:18;2.40;28.00
7784;DHT22;19359;51.402;6.778;2023-01-28T02:18:46;2.40;26.80
7784;DHT22;19359;51.402;6.778;2023-01-28T02:21:49;2.30;25.40
7784;DHT22;19359;51.402;6.778;2023-01-28T02:27:30;2.20;33.20
7784;DHT22;19359;51.402;6.778;2023-01-28T02:30:06;2.20;23.50
7784;DHT22;19359;51.402;6.778;2023-01-28T02:32:42;2.20;22.20
7784;DHT22;19359;51.402;6.778;2023-01-28T02:35:14;2.20;34.90
7784;DHT22;19359;51.402;6.778;2023-01-28T02:37:46;2.20;25.30
7784;DHT22;19359;51.402;6.778;2023-01-28T02:40:17;2.20;36.30
7784;DHT22;19359;51.402;6.778;2023-01-28T02:42:45;2.20;27.50
7784;DHT22;19359;51.402;6.778;2023-01-28T02:45:20;2.20;24.20
7784;DHT22;19359;51.402;6.778;2023-01-28T02:47:47;2.20;25.10
7784;DHT22;19359;51.402;6.778;2023-01-28T02:50:23;2.20;22.10
7784;DHT22;19359;51.402;6.778;2023-01-28T02:52:57;2.20;21.90
7784;DHT22;19359;51.402;6.778;2023-01-28T02:56:05;2.40;29.80
7784;DHT22;19359;51.402;6.778;2023-01-28T02:58:36;2.20;20.10
7784;DHT22;19359;51.402;6.778;2023-01-28T03:01:11;2.10;20.30
7784;DHT22;19359;51.402;6.778;2023-01-28T03:03:50;2.10;28.10
7784;DHT22;19359;51.402;6.778;2023-01-28T03:06:25;2.10;20.50
7784;DHT22;19359;51.402;6.778;2023-01-28T03:08:55;2.10;17.00
7784;DHT22;19359;51.402;6.778;2023-01-28T03:11:42;1.90;23.70
7784;DHT22;19359;51.402;6.778;2023-01-28T03:14:29;2.00;16.00
7784;DHT22;19359;51.402;6.778;2023-01-28T03:17:20;2.10;15.10
7784;DHT22;19359;51.402;6.778;2023-01-28T03:20:08;2.10;14.10
7784;DHT22;19359;51.402;6.778;2023-01-28T03:22:54;2.30;20.50
7784;DHT22;19359;51.402;6.778;2023-01-28T03:25:42;2.00;21.80
7784;DHT22;19359;51.402;6.778;2023-01-28T03:28:28;1.80;20.90
7784;DHT22;19359;51.402;6.778;2023-01-28T03:31:14;2.20;20.40
7784;DHT22;19359;51.402;6.778;2023-01-28T03:34:01;2.20;12.60
7784;DHT22;19359;51.402;6.778;2023-01-28T03:36:47;2.30;21.00
7784;DHT22;19359;51.402;6.778;2023-01-28T03:39:16;2.20;22.40
7784;DHT22;19359;51.402;6.778;2023-01-28T03:41:55;2.10;14.80
7784;DHT22;19359;51.402;6.778;2023-01-28T03:44:23;2.20;22.00
7784;DHT22;19359;51.402;6.778;2023-01-28T03:47:07;2.10;14.80
7784;DHT22;19359;51.402;6.778;2023-01-28T03:49:38;2.30;22.60
7784;DHT22;19359;51.402;6.778;2023-01-28T03:52:05;2.20;22.90
7784;DHT22;19359;51.402;6.778;2023-01-28T03:54:31;2.40;21.60
7784;DHT22;19359;51.402;6.778;2023-01-28T03:56:58;2.10;13.40
7784;DHT22;19359;51.402;6.778;2023-01-28T03:59:25;2.10;13.90
7784;DHT22;19359;51.402;6.778;2023-01-28T04:01:51;2.10;13.20
7784;DHT22;19359;51.402;6.778;2023-01-28T04:04:19;1.90;20.90
7784;DHT22;19359;51.402;6.778;2023-01-28T04:06:51;2.10;13.10
7784;DHT22;19359;51.402;6.778;2023-01-28T04:09:18;2.10;14.10
7784;DHT22;19359;51.402;6.778;2023-01-28T04:11:45;2.10;13.40
7784;DHT22;19359;51.402;6.778;2023-01-28T04:14:12;2.10;11.20
7784;DHT22;19359;51.402;6.778;2023-01-28T04:16:39;2.10;11.90
7784;DHT22;19359;51.402;6.778;2023-01-28T04:19:06;2.10;14.90
7784;DHT22;19359;51.402;6.778;2023-01-28T04:21:33;2.20;16.60
7784;DHT22;19359;51.402;6.778;2023-01-28T04:24:01;2.10;7.60
7784;DHT22;19359;51.402;6.778;2023-01-28T04:26:28;2.00;8.40
7784;DHT22;19359;51.402;6.778;2023-01-28T04:28:55;2.00;12.80
7784;DHT22;19359;51.402;6.778;2023-01-28T04:31:22;2.10;10.60
7784;DHT22;19359;51.402;6.778;2023-01-28T04:33:49;2.10;12.20
7784;DHT22;19359;51.402;6.778;2023-01-28T04:36:15;2.00;14.30
7784;DHT22;19359;51.402;6.778;2023-01-28T04:38:42;2.10;11.90
7784;DHT22;19359;51.402;6.778;2023-01-28T04:41:10;2.10;3.80
7784;DHT22;19359;51.402;6.778;2023-01-28T04:43:37;2.00;5.90
7784;DHT22;19359;51.402;6.778;2023-01-28T04:46:04;2.00;11.60
7784;DHT22;19359;51.402;6.778;2023-01-28T04:48:31;2.10;11.80
7784;DHT22;19359;51.402;6.778;2023-01-28T04:50:59;2.10;13.20
7784;DHT22;19359;51.402;6.778;2023-01-28T04:53:26;2.10;14.90
7784;DHT22;19359;51.402;6.778;2023-01-28T04:55:53;2.20;14.80
7784;DHT22;19359;51.402;6.778;2023-01-28T04:58:21;1.70;4.70
7784;DHT22;19359;51.402;6.778;2023-01-28T05:00:52;1.90;13.60
7784;DHT22;19359;51.402;6.778;2023-01-28T05:03:19;2.00;5.70
7784;DHT22;19359;51.402;6.778;2023-01-28T05:05:46;2.10;13.70
7784;DHT22;19359;51.402;6.778;2023-01-28T05:08:13;2.10;14.00
7784;DHT22;19359;51.402;6.778;2023-01-28T05:10:40;2.10;6.10
7784;DHT22;19359;51.402;6.778;2023-01-28T05:13:06;1.90;20.40
7784;DHT22;19359;51.402;6.778;2023-01-28T05:15:35;2.10;15.30
7784;DHT22;19359;51.402;6.778;2023-01-28T05:18:01;1.90;10.60
7784;DHT22;19359;51.402;6.778;2023-01-28T05:20:28;2.00;2.20
7784;DHT22;19359;51.402;6.778;2023-01-28T05:22:55;1.90;13.30
7784;DHT22;19359;51.402;6.778;2023-01-28T05:25:22;2.00;5.90
7784;DHT22;19359;51.402;6.778;2023-01-28T05:27:49;2.00;4.70
7784;DHT22;19359;51.402;6.778;2023-01-28T05:30:16;2.00;3.10
7784;DHT22;19359;51.402;6.778;2023-01-28T05:32:45;2.00;1.00
7784;DHT22;19359;51.402;6.778;2023-01-28T05:35:12;2.10;10.50
7784;DHT22;19359;51.402;6.778;2023-01-28T05:37:38;1.90;2.40
7784;DHT22;19359;51.402;6.778;2023-01-28T05:40:06;1.90;4.30
7784;DHT22;19359;51.402;6.778;2023-01-28T05:42:33;2.00;9.50
7784;DHT22;19359;51.402;6.778;2023-01-28T05:45:00;2.00;8.90
7784;DHT22;19359;51.402;6.778;2023-01-28T05:47:26;1.70;7.60
7784;DHT22;19359;51.402;6.778;2023-01-28T05:49:54;2.10;8.70
7784;DHT22;19359;51.402;6.778;2023-01-28T05:52:21;1.90;5.80
7784;DHT22;19359;51.402;6.778;2023-01-28T05:54:48;1.60;7.10
7784;DHT22;19359;51.402;6.778;2023-01-28T05:57:14;1.80;5.90
7784;DHT22;19359;51.402;6.778;2023-01-28T05:59:41;1.90;1.00
7784;DHT22;19359;51.402;6.778;2023-01-28T06:02:08;1.90;1.00
7784;DHT22;19359;51.402;6.778;2023-01-28T06:04:34;2.00;2.00
7784;DHT22;19359;51.402;6.778;2023-01-28T06:07:02;1.80;1.00
7784;DHT22;19359;51.402;6.778;2023-01-28T06:09:29;1.80;1.20
7784;DHT22;19359;51.402;6.778;2023-01-28T06:11:56;1.80;1.00
7784;DHT22;19359;51.402;6.778;2023-01-28T06:14:23;1.80;1.00
7784;DHT22;19359;51.402;6.778;2023-01-28T06:16:49;1.80;1.70
7784;DHT22;19359;51.402;6.778;2023-01-28T06:19:16;1.80;1.00
7784;DHT22;19359;51.402;6.778;2023-01-28T06:21:43;1.70;3.20
7784;DHT22;19359;51.402;6.778;2023-01-28T06:24:11;1.90;4.20
7784;DHT22;19359;51.402;6.778;2023-01-28T06:26:38;1.80;5.50
7784;DHT22;19359;51.402;6.778;2023-01-28T06:29:05;1.90;6.90
7784;DHT22;19359;51.402;6.778;2023-01-28T06:31:32;2.20;1.00
7784;DHT22;19359;51.402;6.778;2023-01-28T06:33:59;1.80;7.00
7784;DHT22;19359;51.402;6.778;2023-01-28T06:36:25;1.90;1.00
7784;DHT22;19359;51.402;6.778;2023-01-28T06:38:52;1.80;14.20
7784;DHT22;19359;51.402;6.778;2023-01-28T06:41:20;1.80;6.80
7784;DHT22;19359;51.402;6.778;2023-01-28T06:43:47;1.80;13.00
7784;DHT22;19359;51.402;6.778;2023-01-28T06:46:13;1.90;5.70
7784;DHT22;19359;51.402;6.778;2023-01-28T06:48:40;1.80;10.10
7784;DHT22;19359;51.402;6.778;2023-01-28T06:51:07;1.90;10.90
7784;DHT22;19359;51.402;6.778;2023-01-28T06:53:33;1.80;13.00
7784;DHT22;19359;51.402;6.778;2023-01-28T06:56:00;2.00;13.30
7784;DHT22;19359;51.402;6.778;2023-01-28T06:58:28;1.90;12.50
7784;DHT22;19359;51.402;6.778;2023-01-28T07:00:55;1.80;5.20
7784;DHT22;19359;51.402;6.778;2023-01-28T07:03:22;1.80;6.20
7784;DHT22;19359;51.402;6.778;2023-01-28T07:05:48;1.80;1.00
7784;DHT22;19359;51.402;6.778;2023-01-28T07:08:15;1.30;6.10
7784;DHT22;19359;51.402;6.778;2023-01-28T07:10:42;1.70;1.00
7784;DHT22;19359;51.402;6.778;2023-01-28T07:13:09;1.70;7.80
7784;DHT22;19359;51.402;6.778;2023-01-28T07:15:37;1.70;1.00
7784;DHT22;19359;51.402;6.778;2023-01-28T07:18:04;1.70;1.00
7784;DHT22;19359;51.402;6.778;2023-01-28T07:20:31;1.80;3.60
7784;DHT22;19359;51.402;6.778;2023-01-28T07:22:57;1.70;1.00
7784;DHT22;19359;51.402;6.778;2023-01-28T07:25:24;1.70;1.00
7784;DHT22;19359;51.402;6.778;2023-01-28T07:27:52;1.70;3.70
7784;DHT22;19359;51.402;6.778;2023-01-28T07:30:20;1.70;1.00
7784;DHT22;19359;51.402;6.778;2023-01-28T07:32:53;1.60;5.40
7784;DHT22;19359;51.402;6.778;2023-01-28T07:35:20;1.80;8.10
7784;DHT22;19359;51.402;6.778;2023-01-28T07:37:51;1.70;1.00
7784;DHT22;19359;51.402;6.778;2023-01-28T07:40:19;1.70;2.80
7784;DHT22;19359;51.402;6.778;2023-01-28T07:42:45;1.80;3.60
7784;DHT22;19359;51.402;6.778;2023-01-28T07:45:12;1.70;6.00
7784;DHT22;19359;51.402;6.778;2023-01-28T07:47:40;1.70;1.00
7784;DHT22;19359;51.402;6.778;2023-01-28T07:50:10;1.80;1.00
7784;DHT22;19359;51.402;6.778;2023-01-28T07:52:37;1.70;1.00
7784;DHT22;19359;51.402;6.778;2023-01-28T07:55:09;1.70;1.00
7784;DHT22;19359;51.402;6.778;2023-01-28T07:57:36;1.80;1.00
7784;DHT22;19359;51.402;6.778;2023-01-28T08:00:03;1.70;1.00
7784;DHT22;19359;51.402;6.778;2023-01-28T08:02:30;1.80;1.80
7784;DHT22;19359;51.402;6.778;2023-01-28T08:04:57;1.80;4.90
7784;DHT22;19359;51.402;6.778;2023-01-28T08:07:28;1.40;1.00
7784;DHT22;19359;51.402;6.778;2023-01-28T08:09:54;1.80;1.00
7784;DHT22;19359;51.402;6.778;2023-01-28T08:12:21;1.60;1.10
7784;DHT22;19359;51.402;6.778;2023-01-28T08:17:15;1.80;1.60
7784;DHT22;19359;51.402;6.778;2023-01-28T08:19:42;1.90;1.40
7784;DHT22;19359;51.402;6.778;2023-01-28T08:22:09;1.90;1.00
7784;DHT22;19359;51.402;6.778;2023-01-28T08:24:37;1.90;1.00
7784;DHT22;19359;51.402;6.778;2023-01-28T08:27:04;1.90;1.00
7784;DHT22;19359;51.402;6.778;2023-01-28T08:29:31;2.10;1.00
7784;DHT22;19359;51.402;6.778;2023-01-28T08:31:58;2.10;1.00
7784;DHT22;19359;51.402;6.778;2023-01-28T08:34:25;2.00;1.00
7784;DHT22;19359;51.402;6.778;2023-01-28T08:36:52;1.90;1.00
7784;DHT22;19359;51.402;6.778;2023-01-28T08:39:18;2.00;1.00
7784;DHT22;19359;51.402;6.778;2023-01-28T08:41:46;2.10;1.30
7784;DHT22;19359;51.402;6.778;2023-01-28T08:44:13;2.10;1.00
7784;DHT22;19359;51.402;6.778;2023-01-28T08:46:40;2.10;1.00
7784;DHT22;19359;51.402;6.778;2023-01-28T08:49:06;2.00;1.00
7784;DHT22;19359;51.402;6.778;2023-01-28T08:51:33;1.80;1.00
7784;DHT22;19359;51.402;6.778;2023-01-28T08:54:00;2.00;1.00
7784;DHT22;19359;51.402;6.778;2023-01-28T08:56:26;2.00;1.00
7784;DHT22;19359;51.402;6.778;2023-01-28T08:58:56;2.00;1.00
7784;DHT22;19359;51.402;6.778;2023-01-28T09:01:22;1.70;1.00
7784;DHT22;19359;51.402;6.778;2023-01-28T09:03:50;1.80;1.00
7784;DHT22;19359;51.402;6.778;2023-01-28T09:06:17;1.80;1.00
7784;DHT22;19359;51.402;6.778;2023-01-28T09:08:43;1.80;1.00
7784;DHT22;19359;51.402;6.778;2023-01-28T09:11:10;1.80;1.00
7784;DHT22;19359;51.402;6.778;2023-01-28T09:13:37;1.90;1.00
7784;DHT22;19359;51.402;6.778;2023-01-28T09:16:06;1.90;1.00
7784;DHT22;19359;51.402;6.778;2023-01-28T09:18:33;2.00;1.00
7784;DHT22;19359;51.402;6.778;2023-01-28T09:21:03;1.80;1.00
7784;DHT22;19359;51.402;6.778;2023-01-28T09:23:33;1.70;1.00
7784;DHT22;19359;51.402;6.778;2023-01-28T09:26:00;1.70;1.00
7784;DHT22;19359;51.402;6.778;2023-01-28T09:28:27;1.80;1.00
7784;DHT22;19359;51.402;6.778;2023-01-28T09:31:00;2.00;1.00
7784;DHT22;19359;51.402;6.778;2023-01-28T09:33:28;1.90;1.00
7784;DHT22;19359;51.402;6.778;2023-01-28T09:35:55;1.90;1.00
7784;DHT22;19359;51.402;6.778;2023-01-28T09:38:21;1.80;1.00
7784;DHT22;19359;51.402;6.778;2023-01-28T09:47:58;1.80;1.00
7784;DHT22;19359;51.402;6.778;2023-01-28T09:50:31;1.80;1.00
7784;DHT22;19359;51.402;6.778;2023-01-28T09:53:02;1.80;1.00
7784;DHT22;19359;51.402;6.778;2023-01-28T09:55:32;1.70;1.00
7784;DHT22;19359;51.402;6.778;2023-01-28T09:57:59;1.80;1.00
7784;DHT22;19359;51.402;6.778;2023-01-28T10:00:31;1.80;1.00
7784;DHT22;19359;51.402;6.778;2023-01-28T10:03:12;1.70;1.00
7784;DHT22;19359;51.402;6.778;2023-01-28T10:05:52;2.10;1.00
7784;DHT22;19359;51.402;6.778;2023-01-28T10:08:32;2.00;1.00
7784;DHT22;19359;51.402;6.778;2023-01-28T10:11:06;2.00;1.00
7784;DHT22;19359;51.402;6.778;2023-01-28T10:13:42;2.20;1.00
7784;DHT22;19359;51.402;6.778;2023-01-28T10:16:21;2.20;1.00
7784;DHT22;19359;51.402;6.778;2023-01-28T10:18:52;2.20;1.00
7784;DHT22;19359;51.402;6.778;2023-01-28T10:21:24;1.90;1.00
7784;DHT22;19359;51.402;6.778;2023-01-28T10:23:58;2.30;1.00
7784;DHT22;19359;51.402;6.778;2023-01-28T10:26:30;2.00;1.00
7784;DHT22;19359;51.402;6.778;2023-01-28T10:29:03;2.10;1.00
7784;DHT22;19359;51.402;6.778;2023-01-28T10:31:35;2.60;1.00
7784;DHT22;19359;51.402;6.778;2023-01-28T10:34:03;2.20;1.00
7784;DHT22;19359;51.402;6.778;2023-01-28T10:36:31;2.40;1.00
7784;DHT22;19359;51.402;6.778;2023-01-28T10:38:58;2.40;1.00
7784;DHT22;19359;51.402;6.778;2023-01-28T10:41:25;2.60;1.00
7784;DHT22;19359;51.402;6.778;2023-01-28T10:43:52;2.70;1.00
7784;DHT22;19359;51.402;6.778;2023-01-28T10:46:21;2.50;1.00
7784;DHT22;19359;51.402;6.778;2023-01-28T10:48:55;2.60;1.00
7784;DHT22;19359;51.402;6.778;2023-01-28T10:51:33;2.70;1.00
7784;DHT22;19359;51.402;6.778;2023-01-28T10:54:01;2.60;1.00
7784;DHT22;19359;51.402;6.778;2023-01-28T10:56:30;2.60;1.00
7784;DHT22;19359;51.402;6.778;2023-01-28T10:58:59;2.50;1.00
7784;DHT22;19359;51.402;6.778;2023-01-28T11:01:38;2.00;1.00
7784;DHT22;19359;51.402;6.778;2023-01-28T11:04:05;2.30;1.00
7784;DHT22;19359;51.402;6.778;2023-01-28T11:06:41;2.10;1.00
7784;DHT22;19359;51.402;6.778;2023-01-28T11:09:20;2.30;1.00
7784;DHT22;19359;51.402;6.778;2023-01-28T11:11:46;2.20;1.00
7784;DHT22;19359;51.402;6.778;2023-01-28T11:14:19;2.20;1.00
7784;DHT22;19359;51.402;6.778;2023-01-28T11:16:46;1.80;1.00
7784;DHT22;19359;51.402;6.778;2023-01-28T11:19:14;2.00;1.00
7784;DHT22;19359;51.402;6.778;2023-01-28T11:21:50;1.80;1.00
7784;DHT22;19359;51.402;6.778;2023-01-28T11:24:21;1.70;1.00
7784;DHT22;19359;51.402;6.778;2023-01-28T11:26:52;1.80;1.00
7784;DHT22;19359;51.402;6.778;2023-01-28T11:29:26;1.80;1.00
7784;DHT22;19359;51.402;6.778;2023-01-28T11:31:53;1.30;1.00
7784;DHT22;19359;51.402;6.778;2023-01-28T11:34:25;2.60;1.00
7784;DHT22;19359;51.402;6.778;2023-01-28T11:36:54;2.10;1.00
7784;DHT22;19359;51.402;6.778;2023-01-28T11:39:26;2.00;1.00
7784;DHT22;19359;51.402;6.778;2023-01-28T11:41:54;2.10;1.00
7784;DHT22;19359;51.402;6.778;2023-01-28T11:44:28;2.00;1.00
7784;DHT22;19359;51.402;6.778;2023-01-28T11:47:18;2.20;1.00
7784;DHT22;19359;51.402;6.778;2023-01-28T11:50:04;2.10;1.00
7784;DHT22;19359;51.402;6.778;2023-01-28T11:52:44;1.90;1.00
7784;DHT22;19359;51.402;6.778;2023-01-28T11:55:25;2.10;1.00
7784;DHT22;19359;51.402;6.778;2023-01-28T11:57:58;2.10;1.00
7784;DHT22;19359;51.402;6.778;2023-01-28T12:00:37;2.10;1.00
7784;DHT22;19359;51.402;6.778;2023-01-28T12:03:31;2.10;1.00
7784;DHT22;19359;51.402;6.778;2023-01-28T12:06:16;2.10;1.00
7784;DHT22;19359;51.402;6.778;2023-01-28T12:08:57;2.10;1.00
7784;DHT22;19359;51.402;6.778;2023-01-28T12:11:31;2.00;1.00
7784;DHT22;19359;51.402;6.778;2023-01-28T12:14:25;2.40;1.00
7784;DHT22;19359;51.402;6.778;2023-01-28T12:17:07;2.40;1.00
7784;DHT22;19359;51.402;6.778;2023-01-28T12:19:47;2.40;1.00
7784;DHT22;19359;51.402;6.778;2023-01-28T12:25:20;2.80;1.00
7784;DHT22;19359;51.402;6.778;2023-01-28T12:27:57;2.90;1.00
7784;DHT22;19359;51.402;6.778;2023-01-28T12:30:35;3.00;1.00
7784;DHT22;19359;51.402;6.778;2023-01-28T12:33:25;3.20;1.00
7784;DHT22;19359;51.402;6.778;2023-01-28T12:36:04;3.20;1.00
7784;DHT22;19359;51.402;6.778;2023-01-28T12:38:43;3.30;1.00
7784;DHT22;19359;51.402;6.778;2023-01-28T12:41:17;3.00;1.00
7784;DHT22;19359;51.402;6.778;2023-01-28T12:43:50;3.10;1.00
7784;DHT22;19359;51.402;6.778;2023-01-28T12:46:31;3.10;1.00
7784;DHT22;19359;51.402;6.778;2023-01-28T12:49:02;3.00;1.00
7784;DHT22;19359;51.402;6.778;2023-01-28T12:51:35;2.60;1.00
7784;DHT22;19359;51.402;6.778;2023-01-28T12:54:07;2.60;1.00
7784;DHT22;19359;51.402;6.778;2023-01-28T12:56:41;2.60;1.00
7784;DHT22;19359;51.402;6.778;2023-01-28T12:59:11;2.40;1.00
7784;DHT22;19359;51.402;6.778;2023-01-28T13:01:42;2.50;1.00
7784;DHT22;19359;51.402;6.778;2023-01-28T13:04:14;2.80;1.00
7784;DHT22;19359;51.402;6.778;2023-01-28T13:06:47;2.80;1.00
7784;DHT22;19359;51.402;6.778;2023-01-28T13:09:18;3.20;1.00
7784;DHT22;19359;51.402;6.778;2023-01-28T13:11:48;3.10;1.00
7784;DHT22;19359;51.402;6.778;2023-01-28T13:14:17;3.30;1.00
7784;DHT22;19359;51.402;6.778;2023-01-28T13:16:45;3.50;1.00
7784;DHT22;19359;51.402;6.778;2023-01-28T13:19:22;3.50;1.00
7784;DHT22;19359;51.402;6.778;2023-01-28T13:24:53;3.60;1.00
7784;DHT22;19359;51.402;6.778;2023-01-28T13:27:24;3.70;1.00
7784;DHT22;19359;51.402;6.778;2023-01-28T13:30:03;3.80;1.00
7784;DHT22;19359;51.402;6.778;2023-01-28T13:32:32;3.80;1.00
7784;DHT22;19359;51.402;6.778;2023-01-28T13:35:02;3.70;1.00
7784;DHT22;19359;51.402;6.778;2023-01-28T13:37:33;3.70;1.00
7784;DHT22;19359;51.402;6.778;2023-01-28T13:40:06;3.70;1.00
7784;DHT22;19359;51.402;6.778;2023-01-28T13:42:35;3.60;1.00
7784;DHT22;19359;51.402;6.778;2023-01-28T13:45:21;3.80;1.00
7784;DHT22;19359;51.402;6.778;2023-01-28T13:47:50;4.20;1.00
7784;DHT22;19359;51.402;6.778;2023-01-28T13:50:20;3.80;1.00
7784;DHT22;19359;51.402;6.778;2023-01-28T13:52:52;3.50;1.00
7784;DHT22;19359;51.402;6.778;2023-01-28T13:55:24;3.90;1.00
7784;DHT22;19359;51.402;6.778;2023-01-28T13:58:23;3.10;1.00
7784;DHT22;19359;51.402;6.778;2023-01-28T14:01:11;3.00;1.00
7784;DHT22;19359;51.402;6.778;2023-01-28T14:07:12;2.80;1.00
7784;DHT22;19359;51.402;6.778;2023-01-28T14:09:54;2.70;1.00
7784;DHT22;19359;51.402;6.778;2023-01-28T14:12:46;2.60;1.00
7784;DHT22;19359;51.402;6.778;2023-01-28T14:15:50;2.50;1.00
7784;DHT22;19359;51.402;6.778;2023-01-28T14:18:25;2.70;1.00
7784;DHT22;19359;51.402;6.778;2023-01-28T14:20:54;2.70;1.00
7784;DHT22;19359;51.402;6.778;2023-01-28T14:23:22;2.50;1.00
7784;DHT22;19359;51.402;6.778;2023-01-28T14:26:12;2.60;1.00
7784;DHT22;19359;51.402;6.778;2023-01-28T14:28:48;2.60;1.00
7784;DHT22;19359;51.402;6.778;2023-01-28T14:31:24;2.80;1.00
7784;DHT22;19359;51.402;6.778;2023-01-28T14:33:52;2.70;1.00
7784;DHT22;19359;51.402;6.778;2023-01-28T14:36:19;2.70;1.00
7784;DHT22;19359;51.402;6.778;2023-01-28T14:38:46;2.70;1.00
7784;DHT22;19359;51.402;6.778;2023-01-28T14:41:22;2.80;1.00
7784;DHT22;19359;51.402;6.778;2023-01-28T14:43:50;2.70;1.00
7784;DHT22;19359;51.402;6.778;2023-01-28T14:46:29;2.80;1.00
7784;DHT22;19359;51.402;6.778;2023-01-28T14:49:15;2.80;1.00
7784;DHT22;19359;51.402;6.778;2023-01-28T14:51:58;2.90;1.00
7784;DHT22;19359;51.402;6.778;2023-01-28T14:54:46;2.70;1.00
7784;DHT22;19359;51.402;6.778;2023-01-28T14:57:30;2.80;1.00
7784;DHT22;19359;51.402;6.778;2023-01-28T15:00:00;2.80;1.00
7784;DHT22;19359;51.402;6.778;2023-01-28T15:02:30;2.70;1.00
7784;DHT22;19359;51.402;6.778;2023-01-28T15:05:07;2.70;1.00
7784;DHT22;19359;51.402;6.778;2023-01-28T15:07:34;2.60;1.00
7784;DHT22;19359;51.402;6.778;2023-01-28T15:10:01;2.60;1.00
7784;DHT22;19359;51.402;6.778;2023-01-28T15:12:33;2.50;1.00
7784;DHT22;19359;51.402;6.778;2023-01-28T15:15:08;2.40;1.00
7784;DHT22;19359;51.402;6.778;2023-01-28T15:17:36;2.10;1.00
7784;DHT22;19359;51.402;6.778;2023-01-28T15:20:06;2.20;1.00
7784;DHT22;19359;51.402;6.778;2023-01-28T15:25:00;2.10;1.00
7784;DHT22;19359;51.402;6.778;2023-01-28T15:27:29;1.90;1.00
7784;DHT22;19359;51.402;6.778;2023-01-28T15:29:58;2.00;1.00
7784;DHT22;19359;51.402;6.778;2023-01-28T15:32:28;2.10;1.00
7784;DHT22;19359;51.402;6.778;2023-01-28T15:34:58;1.80;1.00
7784;DHT22;19359;51.402;6.778;2023-01-28T15:37:25;1.80;1.00
7784;DHT22;19359;51.402;6.778;2023-01-28T15:39:59;1.90;1.00
7784;DHT22;19359;51.402;6.778;2023-01-28T15:42:26;1.80;1.00
7784;DHT22;19359;51.402;6.778;2023-01-28T15:44:56;1.80;1.00
7784;DHT22;19359;51.402;6.778;2023-01-28T15:47:25;1.70;1.00
7784;DHT22;19359;51.402;6.778;2023-01-28T15:49:55;1.60;1.00
7784;DHT22;19359;51.402;6.778;2023-01-28T15:52:31;1.50;1.00
7784;DHT22;19359;51.402;6.778;2023-01-28T15:54:59;1.60;1.00
7784;DHT22;19359;51.402;6.778;2023-01-28T15:57:28;1.50;1.00
7784;DHT22;19359;51.402;6.778;2023-01-28T16:00:13;1.50;1.00
7784;DHT22;19359;51.402;6.778;2023-01-28T16:02:44;1.20;1.00
7784;DHT22;19359;51.402;6.778;2023-01-28T16:05:25;1.40;1.00
7784;DHT22;19359;51.402;6.778;2023-01-28T16:07:55;1.30;1.00
7784;DHT22;19359;51.402;6.778;2023-01-28T16:10:25;1.20;1.00
7784;DHT22;19359;51.402;6.778;2023-01-28T16:12:55;1.20;1.00
7784;DHT22;19359;51.402;6.778;2023-01-28T16:15:23;1.20;1.00
7784;DHT22;19359;51.402;6.778;2023-01-28T16:17:51;1.10;1.00
7784;DHT22;19359;51.402;6.778;2023-01-28T16:20:24;1.10;3.50
7784;DHT22;19359;51.402;6.778;2023-01-28T16:22:55;1.00;1.00
7784;DHT22;19359;51.402;6.778;2023-01-28T16:25:26;0.80;1.00
7784;DHT22;19359;51.402;6.778;2023-01-28T16:27:53;1.10;6.50
7784;DHT22;19359;51.402;6.778;2023-01-28T16:30:20;0.70;7.50
7784;DHT22;19359;51.402;6.778;2023-01-28T16:32:47;0.80;10.10
7784;DHT22;19359;51.402;6.778;2023-01-28T16:35:15;0.60;3.60
7784;DHT22;19359;51.402;6.778;2023-01-28T16:37:43;0.80;13.70
7784;DHT22;19359;51.402;6.778;2023-01-28T16:40:13;0.70;5.60
7784;DHT22;19359;51.402;6.778;2023-01-28T16:42:41;0.60;16.20
7784;DHT22;19359;51.402;6.778;2023-01-28T16:45:14;0.50;9.80
7784;DHT22;19359;51.402;6.778;2023-01-28T16:47:42;0.50;10.20
7784;DHT22;19359;51.402;6.778;2023-01-28T16:50:10;0.40;21.20
7784;DHT22;19359;51.402;6.778;2023-01-28T16:52:37;0.30;13.30
7784;DHT22;19359;51.402;6.778;2023-01-28T16:55:08;-0.10;24.30
7784;DHT22;19359;51.402;6.778;2023-01-28T16:57:37;0.10;17.00
7784;DHT22;19359;51.402;6.778;2023-01-28T17:00:06;0.00;19.50